sensor_id;sensor_type;location;lat;lon;timestamp;pressure;altitude;pressure_sealevel;temperature;humidity
29247;BME280;16272;48.188;9.964;2022-07-29T00:02:13;95756.25;;;20.41;76.72
29247;BME280;16272;48.188;9.964;2022-07-29T00:04:38;95737.69;;;20.57;74.89
29247;BME280;16272;48.188;9.964;2022-07-29T00:07:04;95750.66;;;20.35;76.86
29247;BME280;16272;48.188;9.964;2022-07-29T00:09:31;95749.28;;;20.19;77.04
29247;BME280;16272;48.188;9.964;2022-07-29T00:11:58;95738.56;;;19.99;78.93
29247;BME280;16272;48.188;9.964;2022-07-29T00:14:24;95743.34;;;19.71;79.97
29247;BME280;16272;48.188;9.964;2022-07-29T00:16:49;95741.50;;;20.36;76.75
29247;BME280;16272;48.188;9.964;2022-07-29T00:19:17;95748.34;;;19.60;80.48
29247;BME280;16272;48.188;9.964;2022-07-29T00:21:42;95746.25;;;19.69;79.85
29247;BME280;16272;48.188;9.964;2022-07-29T00:24:08;95734.63;;;19.95;80.16
29247;BME280;16272;48.188;9.964;2022-07-29T00:26:33;95734.44;;;19.83;79.38
29247;BME280;16272;48.188;9.964;2022-07-29T00:29:05;95734.69;;;19.55;82.06
29247;BME280;16272;48.188;9.964;2022-07-29T00:31:30;95721.16;;;19.89;80.71
29247;BME280;16272;48.188;9.964;2022-07-29T00:33:56;95720.75;;;19.92;78.81
29247;BME280;16272;48.188;9.964;2022-07-29T00:36:21;95711.31;;;20.21;76.63
29247;BME280;16272;48.188;9.964;2022-07-29T00:38:50;95706.25;;;20.38;74.94
29247;BME280;16272;48.188;9.964;2022-07-29T00:41:17;95705.41;;;20.37;75.15
29247;BME280;16272;48.188;9.964;2022-07-29T00:43:43;95707.16;;;20.25;75.75
29247;BME280;16272;48.188;9.964;2022-07-29T00:46:08;95696.72;;;20.35;75.18
29247;BME280;16272;48.188;9.964;2022-07-29T00:48:34;95693.44;;;20.33;75.60
29247;BME280;16272;48.188;9.964;2022-07-29T00:51:01;95687.00;;;19.82;77.93
29247;BME280;16272;48.188;9.964;2022-07-29T00:53:27;95675.84;;;19.52;79.96
29247;BME280;16272;48.188;9.964;2022-07-29T00:55:57;95675.78;;;19.92;77.51
29247;BME280;16272;48.188;9.964;2022-07-29T00:58:24;95677.34;;;20.07;76.46
29247;BME280;16272;48.188;9.964;2022-07-29T01:01:18;95669.50;;;19.98;76.50
29247;BME280;16272;48.188;9.964;2022-07-29T01:03:43;95664.41;;;19.77;76.66
29247;BME280;16272;48.188;9.964;2022-07-29T01:06:09;95671.81;;;19.95;75.96
29247;BME280;16272;48.188;9.964;2022-07-29T01:08:35;95673.56;;;19.49;78.51
29247;BME280;16272;48.188;9.964;2022-07-29T01:11:01;95668.81;;;19.38;78.36
29247;BME280;16272;48.188;9.964;2022-07-29T01:13:27;95666.59;;;19.01;79.94
29247;BME280;16272;48.188;9.964;2022-07-29T01:15:59;95662.44;;;18.85;81.50
29247;BME280;16272;48.188;9.964;2022-07-29T01:18:31;95663.44;;;19.38;78.46
29247;BME280;16272;48.188;9.964;2022-07-29T01:21:18;95658.06;;;19.38;77.71
29247;BME280;16272;48.188;9.964;2022-07-29T01:23:48;95659.34;;;19.28;77.70
29247;BME280;16272;48.188;9.964;2022-07-29T01:26:28;95670.69;;;19.44;76.52
29247;BME280;16272;48.188;9.964;2022-07-29T01:32:07;95666.09;;;19.64;75.65
29247;BME280;16272;48.188;9.964;2022-07-29T01:37:17;95666.41;;;19.03;78.96
29247;BME280;16272;48.188;9.964;2022-07-29T01:39:46;95662.25;;;18.94;78.20
29247;BME280;16272;48.188;9.964;2022-07-29T01:42:35;95656.44;;;19.30;77.66
29247;BME280;16272;48.188;9.964;2022-07-29T01:45:18;95657.25;;;18.64;79.42
29247;BME280;16272;48.188;9.964;2022-07-29T01:47:59;95658.94;;;19.05;78.16
29247;BME280;16272;48.188;9.964;2022-07-29T01:50:38;95663.50;;;18.84;78.79
29247;BME280;16272;48.188;9.964;2022-07-29T01:53:08;95659.22;;;18.22;81.79
29247;BME280;16272;48.188;9.964;2022-07-29T01:55:38;95652.59;;;18.04;82.51
29247;BME280;16272;48.188;9.964;2022-07-29T01:58:05;95653.00;;;18.08;82.48
29247;BME280;16272;48.188;9.964;2022-07-29T02:00:35;95652.00;;;18.15;81.60
29247;BME280;16272;48.188;9.964;2022-07-29T02:03:05;95649.31;;;18.15;82.17
29247;BME280;16272;48.188;9.964;2022-07-29T02:05:34;95646.88;;;18.41;79.31
29247;BME280;16272;48.188;9.964;2022-07-29T02:08:01;95646.88;;;18.47;79.27
29247;BME280;16272;48.188;9.964;2022-07-29T02:10:35;95640.72;;;19.20;75.34
29247;BME280;16272;48.188;9.964;2022-07-29T02:13:03;95635.31;;;18.60;78.48
29247;BME280;16272;48.188;9.964;2022-07-29T02:15:32;95635.31;;;18.73;77.69
29247;BME280;16272;48.188;9.964;2022-07-29T02:18:04;95634.13;;;17.88;81.99
29247;BME280;16272;48.188;9.964;2022-07-29T02:20:33;95642.28;;;18.28;80.03
29247;BME280;16272;48.188;9.964;2022-07-29T02:23:00;95635.56;;;17.90;82.12
29247;BME280;16272;48.188;9.964;2022-07-29T02:25:27;95639.72;;;17.93;81.56
29247;BME280;16272;48.188;9.964;2022-07-29T02:27:53;95641.44;;;17.66;82.10
29247;BME280;16272;48.188;9.964;2022-07-29T02:30:22;95641.00;;;17.62;82.75
29247;BME280;16272;48.188;9.964;2022-07-29T02:32:49;95640.19;;;18.10;78.85
29247;BME280;16272;48.188;9.964;2022-07-29T02:35:16;95628.66;;;18.29;77.70
29247;BME280;16272;48.188;9.964;2022-07-29T02:37:44;95632.72;;;18.05;80.37
29247;BME280;16272;48.188;9.964;2022-07-29T02:40:11;95632.81;;;18.32;77.79
29247;BME280;16272;48.188;9.964;2022-07-29T02:42:42;95627.84;;;17.80;82.00
29247;BME280;16272;48.188;9.964;2022-07-29T02:45:09;95623.41;;;17.94;82.30
29247;BME280;16272;48.188;9.964;2022-07-29T02:47:38;95624.06;;;18.16;79.16
29247;BME280;16272;48.188;9.964;2022-07-29T02:50:17;95620.53;;;18.03;79.56
29247;BME280;16272;48.188;9.964;2022-07-29T02:52:50;95624.91;;;18.17;78.08
29247;BME280;16272;48.188;9.964;2022-07-29T02:58:29;95619.16;;;18.27;76.78
29247;BME280;16272;48.188;9.964;2022-07-29T03:00:57;95621.25;;;18.58;74.50
29247;BME280;16272;48.188;9.964;2022-07-29T03:03:25;95624.13;;;18.36;75.68
29247;BME280;16272;48.188;9.964;2022-07-29T03:05:57;95618.66;;;18.03;78.36
29247;BME280;16272;48.188;9.964;2022-07-29T03:08:24;95628.22;;;18.12;77.75
29247;BME280;16272;48.188;9.964;2022-07-29T03:10:51;95616.97;;;17.95;77.88
29247;BME280;16272;48.188;9.964;2022-07-29T03:13:19;95623.59;;;17.93;77.80
29247;BME280;16272;48.188;9.964;2022-07-29T03:15:45;95626.22;;;17.79;77.60
29247;BME280;16272;48.188;9.964;2022-07-29T03:18:11;95622.84;;;17.64;78.57
29247;BME280;16272;48.188;9.964;2022-07-29T03:20:37;95623.22;;;17.96;77.55
29247;BME280;16272;48.188;9.964;2022-07-29T03:23:03;95622.75;;;17.86;77.55
29247;BME280;16272;48.188;9.964;2022-07-29T03:25:29;95617.28;;;17.72;78.62
29247;BME280;16272;48.188;9.964;2022-07-29T03:27:58;95616.84;;;17.62;77.50
29247;BME280;16272;48.188;9.964;2022-07-29T03:30:24;95627.75;;;17.12;79.71
29247;BME280;16272;48.188;9.964;2022-07-29T03:32:50;95614.75;;;17.16;78.98
29247;BME280;16272;48.188;9.964;2022-07-29T03:35:15;95619.81;;;17.32;78.15
29247;BME280;16272;48.188;9.964;2022-07-29T03:37:45;95612.94;;;17.23;79.17
29247;BME280;16272;48.188;9.964;2022-07-29T03:40:22;95615.84;;;17.28;77.94
29247;BME280;16272;48.188;9.964;2022-07-29T03:42:51;95616.88;;;17.27;78.04
29247;BME280;16272;48.188;9.964;2022-07-29T03:45:19;95615.88;;;17.35;78.99
29247;BME280;16272;48.188;9.964;2022-07-29T03:47:53;95615.59;;;17.58;77.97
29247;BME280;16272;48.188;9.964;2022-07-29T03:50:19;95613.59;;;17.73;76.78
29247;BME280;16272;48.188;9.964;2022-07-29T03:52:47;95620.94;;;17.51;77.42
29247;BME280;16272;48.188;9.964;2022-07-29T03:55:13;95624.81;;;16.57;81.38
29247;BME280;16272;48.188;9.964;2022-07-29T03:57:49;95633.88;;;17.06;80.03
29247;BME280;16272;48.188;9.964;2022-07-29T04:00:15;95632.72;;;16.65;78.80
29247;BME280;16272;48.188;9.964;2022-07-29T04:02:41;95627.53;;;16.35;80.63
29247;BME280;16272;48.188;9.964;2022-07-29T04:05:13;95630.81;;;16.81;78.52
29247;BME280;16272;48.188;9.964;2022-07-29T04:07:44;95637.69;;;16.68;79.57
29247;BME280;16272;48.188;9.964;2022-07-29T04:10:09;95636.56;;;16.78;80.01
29247;BME280;16272;48.188;9.964;2022-07-29T04:12:35;95632.72;;;16.65;79.26
29247;BME280;16272;48.188;9.964;2022-07-29T04:15:06;95633.47;;;17.02;77.00
29247;BME280;16272;48.188;9.964;2022-07-29T04:17:31;95638.97;;;16.94;76.73
29247;BME280;16272;48.188;9.964;2022-07-29T04:19:56;95636.41;;;17.14;76.63
29247;BME280;16272;48.188;9.964;2022-07-29T04:22:22;95640.94;;;17.07;76.89
29247;BME280;16272;48.188;9.964;2022-07-29T04:24:47;95637.00;;;17.44;76.22
29247;BME280;16272;48.188;9.964;2022-07-29T04:27:12;95637.47;;;18.03;73.75
29247;BME280;16272;48.188;9.964;2022-07-29T04:29:38;95641.81;;;17.97;73.01
29247;BME280;16272;48.188;9.964;2022-07-29T04:32:03;95633.84;;;18.64;70.18
29247;BME280;16272;48.188;9.964;2022-07-29T04:34:29;95638.97;;;18.19;72.74
29247;BME280;16272;48.188;9.964;2022-07-29T04:36:55;95647.03;;;16.72;80.02
29247;BME280;16272;48.188;9.964;2022-07-29T04:39:20;95644.41;;;16.79;80.90
29247;BME280;16272;48.188;9.964;2022-07-29T04:41:45;95636.44;;;16.86;80.03
29247;BME280;16272;48.188;9.964;2022-07-29T04:44:12;95634.91;;;17.33;78.96
29247;BME280;16272;48.188;9.964;2022-07-29T04:46:38;95637.09;;;18.19;74.31
29247;BME280;16272;48.188;9.964;2022-07-29T04:49:03;95638.41;;;18.50;73.68
29247;BME280;16272;48.188;9.964;2022-07-29T04:51:29;95648.84;;;17.57;78.40
29247;BME280;16272;48.188;9.964;2022-07-29T04:53:54;95646.78;;;17.94;75.80
29247;BME280;16272;48.188;9.964;2022-07-29T04:56:19;95646.97;;;17.92;77.22
29247;BME280;16272;48.188;9.964;2022-07-29T04:58:45;95650.16;;;18.36;75.18
29247;BME280;16272;48.188;9.964;2022-07-29T05:01:10;95648.94;;;17.35;79.21
29247;BME280;16272;48.188;9.964;2022-07-29T05:03:36;95640.06;;;17.76;78.40
29247;BME280;16272;48.188;9.964;2022-07-29T05:06:01;95650.75;;;17.63;79.77
29247;BME280;16272;48.188;9.964;2022-07-29T05:08:28;95646.25;;;18.45;77.19
29247;BME280;16272;48.188;9.964;2022-07-29T05:10:54;95646.16;;;18.05;76.67
29247;BME280;16272;48.188;9.964;2022-07-29T05:13:30;95648.47;;;18.22;76.71
29247;BME280;16272;48.188;9.964;2022-07-29T05:15:56;95656.44;;;19.17;73.40
29247;BME280;16272;48.188;9.964;2022-07-29T05:18:23;95648.97;;;18.65;75.33
29247;BME280;16272;48.188;9.964;2022-07-29T05:20:49;95652.53;;;19.06;73.83
29247;BME280;16272;48.188;9.964;2022-07-29T05:23:14;95656.88;;;19.20;71.40
29247;BME280;16272;48.188;9.964;2022-07-29T05:25:39;95661.00;;;18.83;75.32
29247;BME280;16272;48.188;9.964;2022-07-29T05:28:05;95643.03;;;19.82;72.59
29247;BME280;16272;48.188;9.964;2022-07-29T05:30:30;95651.34;;;19.80;73.09
29247;BME280;16272;48.188;9.964;2022-07-29T05:32:55;95650.63;;;20.44;69.84
29247;BME280;16272;48.188;9.964;2022-07-29T05:35:30;95648.16;;;19.97;72.32
29247;BME280;16272;48.188;9.964;2022-07-29T05:37:55;95649.28;;;19.69;72.03
29247;BME280;16272;48.188;9.964;2022-07-29T05:40:20;95652.41;;;20.18;71.63
29247;BME280;16272;48.188;9.964;2022-07-29T05:42:46;95659.59;;;19.92;73.36
29247;BME280;16272;48.188;9.964;2022-07-29T05:45:11;95661.59;;;20.04;73.10
29247;BME280;16272;48.188;9.964;2022-07-29T05:47:37;95664.13;;;19.98;73.17
29247;BME280;16272;48.188;9.964;2022-07-29T05:50:02;95666.13;;;19.58;74.19
29247;BME280;16272;48.188;9.964;2022-07-29T05:52:29;95664.53;;;19.95;73.21
29247;BME280;16272;48.188;9.964;2022-07-29T05:54:54;95664.34;;;20.35;72.34
29247;BME280;16272;48.188;9.964;2022-07-29T05:57:21;95663.31;;;20.36;72.71
29247;BME280;16272;48.188;9.964;2022-07-29T05:59:47;95660.97;;;20.47;72.74
29247;BME280;16272;48.188;9.964;2022-07-29T06:02:13;95662.91;;;20.97;71.67
29247;BME280;16272;48.188;9.964;2022-07-29T06:04:38;95668.94;;;21.42;68.18
29247;BME280;16272;48.188;9.964;2022-07-29T06:07:04;95664.91;;;20.83;69.74
29247;BME280;16272;48.188;9.964;2022-07-29T06:09:29;95679.31;;;20.31;70.55
29247;BME280;16272;48.188;9.964;2022-07-29T06:11:55;95678.09;;;20.59;69.24
29247;BME280;16272;48.188;9.964;2022-07-29T06:14:20;95683.34;;;20.54;72.74
29247;BME280;16272;48.188;9.964;2022-07-29T06:16:45;95683.09;;;20.94;68.83
29247;BME280;16272;48.188;9.964;2022-07-29T06:19:11;95696.91;;;21.29;68.36
29247;BME280;16272;48.188;9.964;2022-07-29T06:21:47;95691.38;;;20.99;70.25
29247;BME280;16272;48.188;9.964;2022-07-29T06:24:14;95688.63;;;20.35;71.67
29247;BME280;16272;48.188;9.964;2022-07-29T06:26:41;95697.47;;;20.49;71.81
29247;BME280;16272;48.188;9.964;2022-07-29T06:29:07;95699.34;;;20.04;74.04
29247;BME280;16272;48.188;9.964;2022-07-29T06:31:33;95700.94;;;20.18;73.51
29247;BME280;16272;48.188;9.964;2022-07-29T06:33:59;95708.84;;;20.13;73.36
29247;BME280;16272;48.188;9.964;2022-07-29T06:36:24;95708.09;;;19.99;73.93
29247;BME280;16272;48.188;9.964;2022-07-29T06:38:49;95710.81;;;19.79;75.44
29247;BME280;16272;48.188;9.964;2022-07-29T06:41:15;95708.72;;;19.94;75.22
29247;BME280;16272;48.188;9.964;2022-07-29T06:43:42;95716.88;;;20.26;73.23
29247;BME280;16272;48.188;9.964;2022-07-29T06:46:14;95707.94;;;20.78;71.22
29247;BME280;16272;48.188;9.964;2022-07-29T06:48:48;95704.13;;;20.47;73.47
29247;BME280;16272;48.188;9.964;2022-07-29T06:51:14;95709.16;;;20.43;72.85
29247;BME280;16272;48.188;9.964;2022-07-29T06:53:40;95712.38;;;20.90;71.79
29247;BME280;16272;48.188;9.964;2022-07-29T06:56:06;95717.28;;;21.00;71.15
29247;BME280;16272;48.188;9.964;2022-07-29T06:58:35;95718.72;;;20.78;71.17
29247;BME280;16272;48.188;9.964;2022-07-29T07:01:05;95722.88;;;21.81;68.54
29247;BME280;16272;48.188;9.964;2022-07-29T07:03:31;95723.66;;;20.87;71.41
29247;BME280;16272;48.188;9.964;2022-07-29T07:05:57;95728.78;;;20.89;71.94
29247;BME280;16272;48.188;9.964;2022-07-29T07:08:29;95730.00;;;22.31;68.29
29247;BME280;16272;48.188;9.964;2022-07-29T07:10:54;95721.00;;;22.37;67.59
29247;BME280;16272;48.188;9.964;2022-07-29T07:13:23;95728.38;;;21.42;69.34
29247;BME280;16272;48.188;9.964;2022-07-29T07:15:49;95728.50;;;20.72;71.31
29247;BME280;16272;48.188;9.964;2022-07-29T07:18:22;95728.38;;;21.42;71.01
29247;BME280;16272;48.188;9.964;2022-07-29T07:20:47;95723.97;;;21.23;68.68
29247;BME280;16272;48.188;9.964;2022-07-29T07:23:13;95731.81;;;21.31;70.73
29247;BME280;16272;48.188;9.964;2022-07-29T07:25:38;95727.63;;;21.35;70.71
29247;BME280;16272;48.188;9.964;2022-07-29T07:28:04;95729.59;;;21.72;70.57
29247;BME280;16272;48.188;9.964;2022-07-29T07:30:29;95728.34;;;21.74;70.89
29247;BME280;16272;48.188;9.964;2022-07-29T07:32:54;95730.19;;;21.74;70.60
29247;BME280;16272;48.188;9.964;2022-07-29T07:35:20;95731.19;;;22.35;68.72
29247;BME280;16272;48.188;9.964;2022-07-29T07:37:50;95725.84;;;22.28;66.62
29247;BME280;16272;48.188;9.964;2022-07-29T07:40:15;95731.31;;;22.58;66.44
29247;BME280;16272;48.188;9.964;2022-07-29T07:42:40;95728.56;;;22.47;66.00
29247;BME280;16272;48.188;9.964;2022-07-29T07:45:15;95731.13;;;22.72;65.39
29247;BME280;16272;48.188;9.964;2022-07-29T07:47:41;95739.94;;;22.98;65.44
29247;BME280;16272;48.188;9.964;2022-07-29T07:50:08;95729.91;;;23.52;64.73
29247;BME280;16272;48.188;9.964;2022-07-29T07:52:34;95717.88;;;23.48;64.26
29247;BME280;16272;48.188;9.964;2022-07-29T07:55:00;95715.66;;;23.45;60.89
29247;BME280;16272;48.188;9.964;2022-07-29T07:57:26;95715.19;;;24.07;60.37
29247;BME280;16272;48.188;9.964;2022-07-29T07:59:51;95722.50;;;23.71;63.45
29247;BME280;16272;48.188;9.964;2022-07-29T08:02:16;95722.56;;;22.75;63.98
29247;BME280;16272;48.188;9.964;2022-07-29T08:04:41;95718.16;;;22.92;63.72
29247;BME280;16272;48.188;9.964;2022-07-29T08:07:07;95714.03;;;23.91;62.39
29247;BME280;16272;48.188;9.964;2022-07-29T08:09:34;95715.06;;;24.14;61.96
29247;BME280;16272;48.188;9.964;2022-07-29T08:12:00;95706.91;;;24.02;64.37
29247;BME280;16272;48.188;9.964;2022-07-29T08:14:29;95708.03;;;24.30;62.68
29247;BME280;16272;48.188;9.964;2022-07-29T08:16:54;95705.13;;;24.60;61.60
29247;BME280;16272;48.188;9.964;2022-07-29T08:19:19;95708.69;;;24.49;62.96
29247;BME280;16272;48.188;9.964;2022-07-29T08:21:45;95715.94;;;24.31;62.83
29247;BME280;16272;48.188;9.964;2022-07-29T08:24:10;95732.75;;;23.81;65.40
29247;BME280;16272;48.188;9.964;2022-07-29T08:26:54;95743.00;;;23.01;64.80
29247;BME280;16272;48.188;9.964;2022-07-29T08:29:19;95728.53;;;23.85;62.33
29247;BME280;16272;48.188;9.964;2022-07-29T08:31:44;95730.94;;;24.34;63.82
29247;BME280;16272;48.188;9.964;2022-07-29T08:34:10;95745.38;;;23.87;63.15
29247;BME280;16272;48.188;9.964;2022-07-29T08:36:37;95744.41;;;23.81;63.96
29247;BME280;16272;48.188;9.964;2022-07-29T08:39:03;95746.19;;;23.64;64.73
29247;BME280;16272;48.188;9.964;2022-07-29T08:41:29;95739.94;;;23.87;61.28
29247;BME280;16272;48.188;9.964;2022-07-29T08:43:54;95734.88;;;24.84;61.90
29247;BME280;16272;48.188;9.964;2022-07-29T08:46:20;95737.13;;;23.94;62.13
29247;BME280;16272;48.188;9.964;2022-07-29T08:48:47;95732.97;;;23.67;65.32
29247;BME280;16272;48.188;9.964;2022-07-29T08:51:14;95738.50;;;23.25;64.80
29247;BME280;16272;48.188;9.964;2022-07-29T08:53:41;95743.03;;;24.02;63.61
29247;BME280;16272;48.188;9.964;2022-07-29T08:56:07;95746.06;;;23.47;64.36
29247;BME280;16272;48.188;9.964;2022-07-29T08:58:33;95743.50;;;23.88;65.12
29247;BME280;16272;48.188;9.964;2022-07-29T09:01:01;95753.91;;;23.25;67.26
29247;BME280;16272;48.188;9.964;2022-07-29T09:03:30;95752.53;;;24.29;63.28
29247;BME280;16272;48.188;9.964;2022-07-29T09:05:58;95746.69;;;23.96;62.11
29247;BME280;16272;48.188;9.964;2022-07-29T09:08:23;95752.19;;;23.54;64.57
29247;BME280;16272;48.188;9.964;2022-07-29T09:10:49;95743.31;;;24.42;64.92
29247;BME280;16272;48.188;9.964;2022-07-29T09:13:15;95750.78;;;23.63;64.78
29247;BME280;16272;48.188;9.964;2022-07-29T09:15:41;95756.69;;;23.72;63.35
29247;BME280;16272;48.188;9.964;2022-07-29T09:18:06;95764.47;;;23.68;62.77
29247;BME280;16272;48.188;9.964;2022-07-29T09:20:31;95757.28;;;24.10;61.03
29247;BME280;16272;48.188;9.964;2022-07-29T09:23:15;95757.81;;;24.88;61.38
29247;BME280;16272;48.188;9.964;2022-07-29T09:25:41;95755.22;;;24.81;62.53
29247;BME280;16272;48.188;9.964;2022-07-29T09:28:12;95750.78;;;24.92;60.40
29247;BME280;16272;48.188;9.964;2022-07-29T09:30:54;95751.09;;;25.07;60.03
29247;BME280;16272;48.188;9.964;2022-07-29T09:33:24;95756.81;;;24.94;61.52
29247;BME280;16272;48.188;9.964;2022-07-29T09:36:04;95750.00;;;25.37;60.48
29247;BME280;16272;48.188;9.964;2022-07-29T09:38:36;95748.06;;;24.92;61.23
29247;BME280;16272;48.188;9.964;2022-07-29T09:41:03;95749.16;;;24.62;60.82
29247;BME280;16272;48.188;9.964;2022-07-29T09:43:29;95741.16;;;24.44;61.70
29247;BME280;16272;48.188;9.964;2022-07-29T09:45:55;95749.91;;;25.03;60.54
29247;BME280;16272;48.188;9.964;2022-07-29T09:48:24;95752.97;;;24.37;61.24
29247;BME280;16272;48.188;9.964;2022-07-29T09:50:51;95756.66;;;24.19;61.75
29247;BME280;16272;48.188;9.964;2022-07-29T09:53:36;95758.22;;;24.03;61.75
29247;BME280;16272;48.188;9.964;2022-07-29T09:56:03;95755.00;;;24.83;62.67
29247;BME280;16272;48.188;9.964;2022-07-29T09:58:28;95761.00;;;24.85;60.72
29247;BME280;16272;48.188;9.964;2022-07-29T10:00:55;95748.81;;;24.58;61.19
29247;BME280;16272;48.188;9.964;2022-07-29T10:03:22;95752.50;;;24.40;62.11
29247;BME280;16272;48.188;9.964;2022-07-29T10:06:10;95751.88;;;24.91;62.76
29247;BME280;16272;48.188;9.964;2022-07-29T10:08:36;95747.84;;;24.12;61.24
29247;BME280;16272;48.188;9.964;2022-07-29T10:11:13;95748.38;;;24.79;63.67
29247;BME280;16272;48.188;9.964;2022-07-29T10:13:39;95735.38;;;25.77;59.18
29247;BME280;16272;48.188;9.964;2022-07-29T10:16:05;95742.22;;;25.63;59.39
29247;BME280;16272;48.188;9.964;2022-07-29T10:18:32;95734.91;;;25.46;60.51
29247;BME280;16272;48.188;9.964;2022-07-29T10:20:57;95735.75;;;25.01;60.31
29247;BME280;16272;48.188;9.964;2022-07-29T10:23:23;95735.91;;;25.40;60.77
29247;BME280;16272;48.188;9.964;2022-07-29T10:25:58;95735.97;;;24.42;57.95
29247;BME280;16272;48.188;9.964;2022-07-29T10:28:24;95735.47;;;23.81;59.52
29247;BME280;16272;48.188;9.964;2022-07-29T10:30:51;95730.31;;;24.44;59.51
29247;BME280;16272;48.188;9.964;2022-07-29T10:36:27;95738.59;;;24.25;60.85
29247;BME280;16272;48.188;9.964;2022-07-29T10:41:56;95731.09;;;24.03;60.42
29247;BME280;16272;48.188;9.964;2022-07-29T10:44:25;95719.97;;;24.17;59.57
29247;BME280;16272;48.188;9.964;2022-07-29T10:46:52;95731.03;;;24.80;60.85
29247;BME280;16272;48.188;9.964;2022-07-29T10:49:28;95719.59;;;24.25;60.29
29247;BME280;16272;48.188;9.964;2022-07-29T10:52:05;95712.56;;;24.53;60.92
29247;BME280;16272;48.188;9.964;2022-07-29T10:57:30;95714.34;;;24.88;58.15
29247;BME280;16272;48.188;9.964;2022-07-29T11:10:42;95708.81;;;26.23;54.87
29247;BME280;16272;48.188;9.964;2022-07-29T11:13:08;95707.28;;;25.21;51.77
29247;BME280;16272;48.188;9.964;2022-07-29T11:15:56;95704.06;;;25.75;55.37
29247;BME280;16272;48.188;9.964;2022-07-29T11:21:36;95703.63;;;25.27;53.70
29247;BME280;16272;48.188;9.964;2022-07-29T11:24:25;95700.19;;;25.20;54.54
29247;BME280;16272;48.188;9.964;2022-07-29T11:27:10;95697.44;;;25.48;55.61
29247;BME280;16272;48.188;9.964;2022-07-29T11:29:54;95689.19;;;25.43;55.33
29247;BME280;16272;48.188;9.964;2022-07-29T11:32:22;95682.69;;;25.83;54.24
29247;BME280;16272;48.188;9.964;2022-07-29T11:35:13;95689.97;;;24.93;56.03
29247;BME280;16272;48.188;9.964;2022-07-29T11:37:39;95682.16;;;25.13;56.14
29247;BME280;16272;48.188;9.964;2022-07-29T11:44:57;95668.56;;;24.80;57.50
29247;BME280;16272;48.188;9.964;2022-07-29T11:47:24;95652.03;;;24.98;59.96
29247;BME280;16272;48.188;9.964;2022-07-29T11:49:50;95657.53;;;24.86;60.21
29247;BME280;16272;48.188;9.964;2022-07-29T11:52:16;95668.06;;;24.83;62.07
29247;BME280;16272;48.188;9.964;2022-07-29T11:54:42;95658.50;;;24.63;62.22
29247;BME280;16272;48.188;9.964;2022-07-29T11:57:08;95664.63;;;25.04;62.25
29247;BME280;16272;48.188;9.964;2022-07-29T11:59:43;95671.63;;;25.00;60.95
29247;BME280;16272;48.188;9.964;2022-07-29T12:02:10;95673.69;;;24.35;59.26
29247;BME280;16272;48.188;9.964;2022-07-29T12:04:53;95671.38;;;25.02;60.35
29247;BME280;16272;48.188;9.964;2022-07-29T12:07:29;95682.31;;;24.61;61.03
29247;BME280;16272;48.188;9.964;2022-07-29T12:09:55;95694.75;;;24.57;60.35
29247;BME280;16272;48.188;9.964;2022-07-29T12:12:21;95692.75;;;25.27;58.14
29247;BME280;16272;48.188;9.964;2022-07-29T12:14:46;95690.56;;;25.63;58.85
29247;BME280;16272;48.188;9.964;2022-07-29T12:17:32;95692.44;;;25.11;57.87
29247;BME280;16272;48.188;9.964;2022-07-29T12:20:02;95697.88;;;24.94;59.47
29247;BME280;16272;48.188;9.964;2022-07-29T12:22:31;95694.19;;;25.18;59.41
29247;BME280;16272;48.188;9.964;2022-07-29T12:25:02;95690.97;;;25.21;57.89
29247;BME280;16272;48.188;9.964;2022-07-29T12:27:28;95688.19;;;25.16;57.37
29247;BME280;16272;48.188;9.964;2022-07-29T12:30:02;95690.69;;;25.34;57.35
29247;BME280;16272;48.188;9.964;2022-07-29T12:32:32;95684.06;;;24.38;57.63
29247;BME280;16272;48.188;9.964;2022-07-29T12:34:58;95680.28;;;25.14;56.88
29247;BME280;16272;48.188;9.964;2022-07-29T12:37:24;95685.75;;;25.31;58.69
29247;BME280;16272;48.188;9.964;2022-07-29T12:39:50;95683.00;;;26.48;54.75
29247;BME280;16272;48.188;9.964;2022-07-29T12:42:18;95674.22;;;27.28;53.96
29247;BME280;16272;48.188;9.964;2022-07-29T12:44:46;95667.34;;;27.20;53.01
29247;BME280;16272;48.188;9.964;2022-07-29T12:47:12;95669.44;;;27.08;53.25
29247;BME280;16272;48.188;9.964;2022-07-29T12:49:41;95679.03;;;27.48;53.78
29247;BME280;16272;48.188;9.964;2022-07-29T12:52:33;95666.63;;;26.98;53.09
29247;BME280;16272;48.188;9.964;2022-07-29T12:54:59;95671.97;;;27.20;51.63
29247;BME280;16272;48.188;9.964;2022-07-29T12:57:30;95662.50;;;28.02;51.12
29247;BME280;16272;48.188;9.964;2022-07-29T13:00:11;95653.38;;;27.86;49.73
29247;BME280;16272;48.188;9.964;2022-07-29T13:02:40;95665.56;;;27.74;51.39
29247;BME280;16272;48.188;9.964;2022-07-29T13:05:07;95669.34;;;27.67;51.81
29247;BME280;16272;48.188;9.964;2022-07-29T13:07:42;95661.53;;;28.45;48.91
29247;BME280;16272;48.188;9.964;2022-07-29T13:12:38;95665.50;;;28.90;49.52
29247;BME280;16272;48.188;9.964;2022-07-29T13:15:14;95660.09;;;28.21;50.63
29247;BME280;16272;48.188;9.964;2022-07-29T13:17:55;95650.09;;;28.53;48.24
29247;BME280;16272;48.188;9.964;2022-07-29T13:20:27;95651.78;;;28.59;49.65
29247;BME280;16272;48.188;9.964;2022-07-29T13:22:58;95642.63;;;28.12;48.88
29247;BME280;16272;48.188;9.964;2022-07-29T13:25:28;95642.97;;;28.41;48.90
29247;BME280;16272;48.188;9.964;2022-07-29T13:27:54;95650.91;;;27.42;49.38
29247;BME280;16272;48.188;9.964;2022-07-29T13:30:20;95651.41;;;27.34;47.20
29247;BME280;16272;48.188;9.964;2022-07-29T13:32:46;95638.53;;;28.25;47.03
29247;BME280;16272;48.188;9.964;2022-07-29T13:35:12;95633.78;;;28.73;47.26
29247;BME280;16272;48.188;9.964;2022-07-29T13:37:38;95640.31;;;28.57;51.32
29247;BME280;16272;48.188;9.964;2022-07-29T13:40:05;95631.50;;;28.39;48.16
29247;BME280;16272;48.188;9.964;2022-07-29T13:42:34;95630.25;;;27.52;46.36
29247;BME280;16272;48.188;9.964;2022-07-29T13:45:00;95615.72;;;27.88;46.73
29247;BME280;16272;48.188;9.964;2022-07-29T13:47:26;95619.69;;;26.90;48.86